Gray Army Air Field
KGRF : now visible

Airfield :











YOU CAN JOIN US ON...

 
LOGIN :

Register | Disclaimer

   EN    FR    IT 

 









Legend :    VFR   Marginal VFR   IFR   Intensive IFR   Very Intensive IFR
Visi :
Ceiling :
>= 8 km
>= 3000ft
5 to 8 km
1000 to 3000 ft
1500m to 5 km
500 to 1000 ft
800 to 1500m
200 to 500 ft
< 800m
< 200 ft
Symbols :   Thunderstorms  Fog  Heavy snow  Heavy precipitations  Wind > 20 kt







- Airport Elevation : 300 ft


KGRF - Gray Army Air Field

CURRENT METAR :
  • 260358Z AUTO 27005KT 10SM FEW065 19/13 A3018 RMK AO2 SLP223 T01940131 $

EXPIRED METARs :
  • 260258Z AUTO 30005KT 10SM CLR 21/12 A3017 RMK AO2 SLP220 T02070121 55002 $
  • 260158Z AUTO 27006KT 10SM CLR 23/12 A3016 RMK AO2 SLP216 T02280124 $

TAF TAF KGRF
Valid from the 25 at 21:00 until the 27 at 03:00 UTC


252100Z 2521/2703 24009KT 9999 SCT030 QNH3016INS
BECMG 2603/2604 33006KT 9999 FEW040 QNH3016INS
BECMG 2617/2618 02009KT 9999 SKC QNH3010INS TX23/2600Z TN14/2612Z
No reported NOTAMs for that airfield.



MET'MAP, your aeronautical weather chart ! - Copyright ORBIFLY December 2007 - Disclaimer

ORBIFLY MET'MAP TEAM :

Programming & Development : Alexandra Zaïnal
Concept & Development : Baudouin d'Aumeries
Co-Development & Prog : Marc-Olivier Méhu
Technical & hardware support : Manuel Goepfert

Contact : metmap@orbifly.com




SOURCES & CREDITS :

   NOAA       Earth
Advisory